Airport ID:KMHV
Update Time (UTC):20/01/2020 19:05
Wind Speed (Knots):6
Wind Direction (Magnetic):60
Temperature (°C):13
Dew Point (°C):-5
Humidity (%):30
Altimeter (inHg):30.11
Density Altitude (Feet):
Visibility (Miles):10+
Clouds (Hundreds of feet):CLR
Present Weather:
METAR:METAR KMHV 201900Z AUTO 07007KT 10SM CLR 13/M05 A3011 RMK A01

The data displayed is for advisory purposes only and is not to be used for flight planning or operations.

This page is not automatically refreshed. Reload the page to see current data.